sensor_id;sensor_type;location;lat;lon;timestamp;P1;durP1;ratioP1;P2;durP2;ratioP2
11665;SDS011;5889;51.350;6.708;2024-01-16T00:01:05;14.00;;;6.73;;
11665;SDS011;5889;51.350;6.708;2024-01-16T00:03:32;12.03;;;7.37;;
11665;SDS011;5889;51.350;6.708;2024-01-16T00:06:00;12.50;;;6.93;;
11665;SDS011;5889;51.350;6.708;2024-01-16T00:08:28;15.47;;;7.33;;
11665;SDS011;5889;51.350;6.708;2024-01-16T00:10:55;10.03;;;6.27;;
11665;SDS011;5889;51.350;6.708;2024-01-16T00:13:22;13.00;;;6.40;;
11665;SDS011;5889;51.350;6.708;2024-01-16T00:15:49;14.23;;;6.40;;
11665;SDS011;5889;51.350;6.708;2024-01-16T00:18:16;9.50;;;6.07;;
11665;SDS011;5889;51.350;6.708;2024-01-16T00:20:43;17.07;;;6.43;;
11665;SDS011;5889;51.350;6.708;2024-01-16T00:23:11;11.07;;;5.77;;
11665;SDS011;5889;51.350;6.708;2024-01-16T00:25:39;12.70;;;5.57;;
11665;SDS011;5889;51.350;6.708;2024-01-16T00:28:06;8.33;;;4.93;;
11665;SDS011;5889;51.350;6.708;2024-01-16T00:30:33;9.37;;;5.37;;
11665;SDS011;5889;51.350;6.708;2024-01-16T00:33:00;11.13;;;5.80;;
11665;SDS011;5889;51.350;6.708;2024-01-16T00:35:28;13.03;;;5.50;;
11665;SDS011;5889;51.350;6.708;2024-01-16T00:37:54;9.90;;;5.47;;
11665;SDS011;5889;51.350;6.708;2024-01-16T00:40:21;11.50;;;5.60;;
11665;SDS011;5889;51.350;6.708;2024-01-16T00:42:50;13.20;;;5.33;;
11665;SDS011;5889;51.350;6.708;2024-01-16T00:45:16;10.90;;;6.53;;
11665;SDS011;5889;51.350;6.708;2024-01-16T00:47:43;7.83;;;5.00;;
11665;SDS011;5889;51.350;6.708;2024-01-16T00:50:10;11.27;;;5.67;;
11665;SDS011;5889;51.350;6.708;2024-01-16T00:52:37;12.63;;;5.73;;
11665;SDS011;5889;51.350;6.708;2024-01-16T00:55:05;11.10;;;6.20;;
11665;SDS011;5889;51.350;6.708;2024-01-16T00:57:32;13.60;;;6.23;;
11665;SDS011;5889;51.350;6.708;2024-01-16T01:00:00;9.87;;;6.00;;
11665;SDS011;5889;51.350;6.708;2024-01-16T01:02:29;13.50;;;5.63;;
11665;SDS011;5889;51.350;6.708;2024-01-16T01:04:55;15.53;;;7.13;;
11665;SDS011;5889;51.350;6.708;2024-01-16T01:07:22;13.77;;;6.23;;
11665;SDS011;5889;51.350;6.708;2024-01-16T01:09:51;11.60;;;5.73;;
11665;SDS011;5889;51.350;6.708;2024-01-16T01:12:17;13.53;;;7.20;;
11665;SDS011;5889;51.350;6.708;2024-01-16T01:14:45;14.33;;;6.90;;
11665;SDS011;5889;51.350;6.708;2024-01-16T01:17:13;18.33;;;8.70;;
11665;SDS011;5889;51.350;6.708;2024-01-16T01:19:40;13.53;;;8.07;;
11665;SDS011;5889;51.350;6.708;2024-01-16T01:22:07;14.57;;;9.13;;
11665;SDS011;5889;51.350;6.708;2024-01-16T01:24:34;18.30;;;10.17;;
11665;SDS011;5889;51.350;6.708;2024-01-16T01:27:01;19.13;;;11.47;;
11665;SDS011;5889;51.350;6.708;2024-01-16T01:29:28;24.50;;;11.27;;
11665;SDS011;5889;51.350;6.708;2024-01-16T01:31:55;23.60;;;13.17;;
11665;SDS011;5889;51.350;6.708;2024-01-16T01:34:24;22.90;;;12.63;;
11665;SDS011;5889;51.350;6.708;2024-01-16T01:36:51;24.80;;;14.27;;
11665;SDS011;5889;51.350;6.708;2024-01-16T01:39:18;25.50;;;14.73;;
11665;SDS011;5889;51.350;6.708;2024-01-16T01:41:44;28.97;;;13.60;;
11665;SDS011;5889;51.350;6.708;2024-01-16T01:44:11;24.50;;;14.27;;
11665;SDS011;5889;51.350;6.708;2024-01-16T01:46:41;22.57;;;13.07;;
11665;SDS011;5889;51.350;6.708;2024-01-16T01:49:09;27.93;;;13.23;;
11665;SDS011;5889;51.350;6.708;2024-01-16T01:51:41;23.67;;;12.93;;
11665;SDS011;5889;51.350;6.708;2024-01-16T01:54:09;22.30;;;13.57;;
11665;SDS011;5889;51.350;6.708;2024-01-16T01:56:38;26.17;;;14.77;;
11665;SDS011;5889;51.350;6.708;2024-01-16T01:59:05;27.67;;;14.80;;
11665;SDS011;5889;51.350;6.708;2024-01-16T02:01:33;29.50;;;15.70;;
11665;SDS011;5889;51.350;6.708;2024-01-16T02:04:01;27.90;;;16.30;;
11665;SDS011;5889;51.350;6.708;2024-01-16T02:06:28;28.47;;;16.33;;
11665;SDS011;5889;51.350;6.708;2024-01-16T02:08:57;29.37;;;16.53;;
11665;SDS011;5889;51.350;6.708;2024-01-16T02:11:24;26.00;;;15.10;;
11665;SDS011;5889;51.350;6.708;2024-01-16T02:13:51;27.13;;;16.73;;
11665;SDS011;5889;51.350;6.708;2024-01-16T02:16:19;28.50;;;18.13;;
11665;SDS011;5889;51.350;6.708;2024-01-16T02:18:46;26.90;;;16.03;;
11665;SDS011;5889;51.350;6.708;2024-01-16T02:21:15;26.97;;;16.40;;
11665;SDS011;5889;51.350;6.708;2024-01-16T02:23:46;23.33;;;14.73;;
11665;SDS011;5889;51.350;6.708;2024-01-16T02:26:13;25.90;;;15.70;;
11665;SDS011;5889;51.350;6.708;2024-01-16T02:28:40;27.80;;;15.20;;
11665;SDS011;5889;51.350;6.708;2024-01-16T02:31:07;24.30;;;16.07;;
11665;SDS011;5889;51.350;6.708;2024-01-16T02:33:35;25.63;;;16.73;;
11665;SDS011;5889;51.350;6.708;2024-01-16T02:36:02;30.70;;;17.20;;
11665;SDS011;5889;51.350;6.708;2024-01-16T02:38:29;28.87;;;16.37;;
11665;SDS011;5889;51.350;6.708;2024-01-16T02:40:57;32.00;;;16.50;;
11665;SDS011;5889;51.350;6.708;2024-01-16T02:43:24;25.37;;;16.00;;
11665;SDS011;5889;51.350;6.708;2024-01-16T02:45:52;24.17;;;15.87;;
11665;SDS011;5889;51.350;6.708;2024-01-16T02:48:19;27.63;;;15.77;;
11665;SDS011;5889;51.350;6.708;2024-01-16T02:50:46;29.30;;;15.67;;
11665;SDS011;5889;51.350;6.708;2024-01-16T02:53:13;24.30;;;15.33;;
11665;SDS011;5889;51.350;6.708;2024-01-16T02:55:41;25.97;;;15.27;;
11665;SDS011;5889;51.350;6.708;2024-01-16T02:58:09;28.20;;;15.50;;
11665;SDS011;5889;51.350;6.708;2024-01-16T03:00:36;29.03;;;15.27;;
11665;SDS011;5889;51.350;6.708;2024-01-16T03:03:03;31.53;;;14.90;;
11665;SDS011;5889;51.350;6.708;2024-01-16T03:05:30;28.83;;;17.23;;
11665;SDS011;5889;51.350;6.708;2024-01-16T03:07:57;29.87;;;15.07;;
11665;SDS011;5889;51.350;6.708;2024-01-16T03:10:24;28.47;;;15.67;;
11665;SDS011;5889;51.350;6.708;2024-01-16T03:12:51;35.10;;;16.83;;
11665;SDS011;5889;51.350;6.708;2024-01-16T03:15:20;29.83;;;14.77;;
11665;SDS011;5889;51.350;6.708;2024-01-16T03:17:47;26.60;;;16.30;;
11665;SDS011;5889;51.350;6.708;2024-01-16T03:20:14;30.50;;;16.03;;
11665;SDS011;5889;51.350;6.708;2024-01-16T03:22:42;29.17;;;16.50;;
11665;SDS011;5889;51.350;6.708;2024-01-16T03:25:09;29.93;;;16.27;;
11665;SDS011;5889;51.350;6.708;2024-01-16T03:27:37;30.67;;;16.60;;
11665;SDS011;5889;51.350;6.708;2024-01-16T03:30:05;36.67;;;17.07;;
11665;SDS011;5889;51.350;6.708;2024-01-16T03:32:35;29.83;;;15.07;;
11665;SDS011;5889;51.350;6.708;2024-01-16T03:35:02;30.40;;;17.20;;
11665;SDS011;5889;51.350;6.708;2024-01-16T03:37:30;31.83;;;16.23;;
11665;SDS011;5889;51.350;6.708;2024-01-16T03:39:57;29.73;;;15.20;;
11665;SDS011;5889;51.350;6.708;2024-01-16T03:42:24;25.50;;;14.77;;
11665;SDS011;5889;51.350;6.708;2024-01-16T03:44:51;26.03;;;13.77;;
11665;SDS011;5889;51.350;6.708;2024-01-16T03:47:18;26.83;;;16.00;;
11665;SDS011;5889;51.350;6.708;2024-01-16T03:49:46;25.90;;;15.30;;
11665;SDS011;5889;51.350;6.708;2024-01-16T03:52:13;29.23;;;15.50;;
11665;SDS011;5889;51.350;6.708;2024-01-16T03:54:40;27.43;;;15.07;;
11665;SDS011;5889;51.350;6.708;2024-01-16T03:57:07;25.30;;;14.70;;
11665;SDS011;5889;51.350;6.708;2024-01-16T03:59:36;30.03;;;15.23;;
11665;SDS011;5889;51.350;6.708;2024-01-16T04:02:03;23.17;;;11.83;;
11665;SDS011;5889;51.350;6.708;2024-01-16T04:04:30;28.37;;;13.43;;
11665;SDS011;5889;51.350;6.708;2024-01-16T04:06:59;20.07;;;12.13;;
11665;SDS011;5889;51.350;6.708;2024-01-16T04:09:26;23.10;;;12.67;;
11665;SDS011;5889;51.350;6.708;2024-01-16T04:11:53;22.43;;;11.63;;
11665;SDS011;5889;51.350;6.708;2024-01-16T04:14:20;19.27;;;11.17;;
11665;SDS011;5889;51.350;6.708;2024-01-16T04:16:47;18.67;;;12.20;;
11665;SDS011;5889;51.350;6.708;2024-01-16T04:19:13;20.73;;;12.03;;
11665;SDS011;5889;51.350;6.708;2024-01-16T04:21:40;16.73;;;10.87;;
11665;SDS011;5889;51.350;6.708;2024-01-16T04:24:09;18.40;;;10.57;;
11665;SDS011;5889;51.350;6.708;2024-01-16T04:26:36;19.20;;;11.40;;
11665;SDS011;5889;51.350;6.708;2024-01-16T04:29:03;17.30;;;9.70;;
11665;SDS011;5889;51.350;6.708;2024-01-16T04:31:29;24.83;;;10.70;;
11665;SDS011;5889;51.350;6.708;2024-01-16T04:33:57;19.57;;;12.20;;
11665;SDS011;5889;51.350;6.708;2024-01-16T04:36:24;18.30;;;10.17;;
11665;SDS011;5889;51.350;6.708;2024-01-16T04:38:51;17.63;;;10.30;;
11665;SDS011;5889;51.350;6.708;2024-01-16T04:41:19;19.03;;;10.03;;
11665;SDS011;5889;51.350;6.708;2024-01-16T04:43:46;16.67;;;10.47;;
11665;SDS011;5889;51.350;6.708;2024-01-16T04:46:14;17.10;;;10.17;;
11665;SDS011;5889;51.350;6.708;2024-01-16T04:48:41;17.30;;;10.37;;
11665;SDS011;5889;51.350;6.708;2024-01-16T04:51:08;13.87;;;9.20;;
11665;SDS011;5889;51.350;6.708;2024-01-16T04:53:35;17.37;;;9.63;;
11665;SDS011;5889;51.350;6.708;2024-01-16T04:56:02;14.73;;;9.87;;
11665;SDS011;5889;51.350;6.708;2024-01-16T04:58:31;19.17;;;11.17;;
11665;SDS011;5889;51.350;6.708;2024-01-16T05:00:58;16.10;;;10.27;;
11665;SDS011;5889;51.350;6.708;2024-01-16T05:03:25;19.17;;;11.57;;
11665;SDS011;5889;51.350;6.708;2024-01-16T05:05:52;20.10;;;11.77;;
11665;SDS011;5889;51.350;6.708;2024-01-16T05:08:21;22.60;;;12.07;;
11665;SDS011;5889;51.350;6.708;2024-01-16T05:10:48;23.97;;;13.33;;
11665;SDS011;5889;51.350;6.708;2024-01-16T05:13:15;22.50;;;13.67;;
11665;SDS011;5889;51.350;6.708;2024-01-16T05:15:43;20.77;;;13.27;;
11665;SDS011;5889;51.350;6.708;2024-01-16T05:18:10;21.93;;;12.70;;
11665;SDS011;5889;51.350;6.708;2024-01-16T05:20:37;23.30;;;13.63;;
11665;SDS011;5889;51.350;6.708;2024-01-16T05:23:04;23.03;;;13.10;;
11665;SDS011;5889;51.350;6.708;2024-01-16T05:25:31;23.50;;;14.73;;
11665;SDS011;5889;51.350;6.708;2024-01-16T05:27:58;25.00;;;15.63;;
11665;SDS011;5889;51.350;6.708;2024-01-16T05:30:25;25.23;;;15.97;;
11665;SDS011;5889;51.350;6.708;2024-01-16T05:32:54;26.40;;;15.50;;
11665;SDS011;5889;51.350;6.708;2024-01-16T05:35:21;27.00;;;14.87;;
11665;SDS011;5889;51.350;6.708;2024-01-16T05:37:48;26.10;;;14.93;;
11665;SDS011;5889;51.350;6.708;2024-01-16T05:40:15;29.10;;;16.30;;
11665;SDS011;5889;51.350;6.708;2024-01-16T05:42:42;28.53;;;16.00;;
11665;SDS011;5889;51.350;6.708;2024-01-16T05:45:09;31.60;;;17.23;;
11665;SDS011;5889;51.350;6.708;2024-01-16T05:47:36;33.83;;;19.07;;
11665;SDS011;5889;51.350;6.708;2024-01-16T05:50:04;31.93;;;18.30;;
11665;SDS011;5889;51.350;6.708;2024-01-16T05:52:32;34.47;;;18.47;;
11665;SDS011;5889;51.350;6.708;2024-01-16T05:54:59;36.20;;;18.87;;
11665;SDS011;5889;51.350;6.708;2024-01-16T05:57:28;34.90;;;16.60;;
11665;SDS011;5889;51.350;6.708;2024-01-16T05:59:56;33.07;;;17.17;;
11665;SDS011;5889;51.350;6.708;2024-01-16T06:02:24;28.40;;;16.13;;
11665;SDS011;5889;51.350;6.708;2024-01-16T06:04:51;30.30;;;15.27;;
11665;SDS011;5889;51.350;6.708;2024-01-16T06:07:19;29.27;;;15.03;;
11665;SDS011;5889;51.350;6.708;2024-01-16T06:09:46;29.07;;;13.60;;
11665;SDS011;5889;51.350;6.708;2024-01-16T06:12:13;24.73;;;13.53;;
11665;SDS011;5889;51.350;6.708;2024-01-16T06:14:40;31.43;;;14.20;;
11665;SDS011;5889;51.350;6.708;2024-01-16T06:17:07;32.57;;;13.40;;
11665;SDS011;5889;51.350;6.708;2024-01-16T06:19:34;23.53;;;13.73;;
11665;SDS011;5889;51.350;6.708;2024-01-16T06:22:01;27.30;;;13.47;;
11665;SDS011;5889;51.350;6.708;2024-01-16T06:24:30;23.93;;;13.73;;
11665;SDS011;5889;51.350;6.708;2024-01-16T06:27:02;34.20;;;11.83;;
11665;SDS011;5889;51.350;6.708;2024-01-16T06:29:33;22.13;;;11.07;;
11665;SDS011;5889;51.350;6.708;2024-01-16T06:32:00;23.17;;;11.97;;
11665;SDS011;5889;51.350;6.708;2024-01-16T06:34:27;22.33;;;11.43;;
11665;SDS011;5889;51.350;6.708;2024-01-16T06:36:54;17.73;;;9.77;;
11665;SDS011;5889;51.350;6.708;2024-01-16T06:39:20;18.03;;;8.93;;
11665;SDS011;5889;51.350;6.708;2024-01-16T06:41:49;21.57;;;8.90;;
11665;SDS011;5889;51.350;6.708;2024-01-16T06:44:16;21.83;;;7.83;;
11665;SDS011;5889;51.350;6.708;2024-01-16T06:46:42;20.97;;;7.60;;
11665;SDS011;5889;51.350;6.708;2024-01-16T06:49:09;16.10;;;7.63;;
11665;SDS011;5889;51.350;6.708;2024-01-16T06:51:36;21.27;;;7.60;;
11665;SDS011;5889;51.350;6.708;2024-01-16T06:54:03;18.67;;;7.10;;
11665;SDS011;5889;51.350;6.708;2024-01-16T06:56:31;18.33;;;7.00;;
11665;SDS011;5889;51.350;6.708;2024-01-16T06:58:59;17.83;;;6.97;;
11665;SDS011;5889;51.350;6.708;2024-01-16T07:01:26;15.83;;;6.73;;
11665;SDS011;5889;51.350;6.708;2024-01-16T07:03:53;16.43;;;6.37;;
11665;SDS011;5889;51.350;6.708;2024-01-16T07:06:20;17.27;;;6.40;;
11665;SDS011;5889;51.350;6.708;2024-01-16T07:08:47;16.70;;;6.40;;
11665;SDS011;5889;51.350;6.708;2024-01-16T07:11:14;18.37;;;6.03;;
11665;SDS011;5889;51.350;6.708;2024-01-16T07:13:41;20.60;;;5.93;;
11665;SDS011;5889;51.350;6.708;2024-01-16T07:16:10;15.50;;;6.30;;
11665;SDS011;5889;51.350;6.708;2024-01-16T07:18:37;14.97;;;6.43;;
11665;SDS011;5889;51.350;6.708;2024-01-16T07:21:05;16.07;;;7.13;;
11665;SDS011;5889;51.350;6.708;2024-01-16T07:23:42;16.53;;;6.97;;
11665;SDS011;5889;51.350;6.708;2024-01-16T07:26:09;12.90;;;6.43;;
11665;SDS011;5889;51.350;6.708;2024-01-16T07:28:36;17.67;;;5.90;;
11665;SDS011;5889;51.350;6.708;2024-01-16T07:31:03;16.33;;;6.73;;
11665;SDS011;5889;51.350;6.708;2024-01-16T07:33:32;16.47;;;5.73;;
11665;SDS011;5889;51.350;6.708;2024-01-16T07:35:59;15.37;;;5.63;;
11665;SDS011;5889;51.350;6.708;2024-01-16T07:38:26;16.33;;;5.83;;
11665;SDS011;5889;51.350;6.708;2024-01-16T07:40:53;17.50;;;4.83;;
11665;SDS011;5889;51.350;6.708;2024-01-16T07:43:21;13.37;;;5.13;;
11665;SDS011;5889;51.350;6.708;2024-01-16T07:45:48;14.37;;;4.73;;
11665;SDS011;5889;51.350;6.708;2024-01-16T07:48:15;8.53;;;4.80;;
11665;SDS011;5889;51.350;6.708;2024-01-16T07:50:43;11.67;;;4.50;;
11665;SDS011;5889;51.350;6.708;2024-01-16T07:53:11;13.30;;;4.83;;
11665;SDS011;5889;51.350;6.708;2024-01-16T07:55:38;12.93;;;4.77;;
11665;SDS011;5889;51.350;6.708;2024-01-16T07:58:04;15.27;;;5.37;;
11665;SDS011;5889;51.350;6.708;2024-01-16T08:00:31;15.03;;;5.03;;
11665;SDS011;5889;51.350;6.708;2024-01-16T08:02:58;13.87;;;5.13;;
11665;SDS011;5889;51.350;6.708;2024-01-16T08:05:25;12.60;;;4.43;;
11665;SDS011;5889;51.350;6.708;2024-01-16T08:07:54;9.37;;;3.60;;
11665;SDS011;5889;51.350;6.708;2024-01-16T08:10:21;18.43;;;4.07;;
11665;SDS011;5889;51.350;6.708;2024-01-16T08:12:48;15.67;;;4.50;;
11665;SDS011;5889;51.350;6.708;2024-01-16T08:15:15;11.27;;;3.90;;
11665;SDS011;5889;51.350;6.708;2024-01-16T08:17:41;17.90;;;4.73;;
11665;SDS011;5889;51.350;6.708;2024-01-16T08:20:09;17.03;;;5.33;;
11665;SDS011;5889;51.350;6.708;2024-01-16T08:22:36;15.70;;;4.70;;
11665;SDS011;5889;51.350;6.708;2024-01-16T08:25:05;7.80;;;4.20;;
11665;SDS011;5889;51.350;6.708;2024-01-16T08:27:33;11.00;;;4.07;;
11665;SDS011;5889;51.350;6.708;2024-01-16T08:30:02;7.73;;;4.03;;
11665;SDS011;5889;51.350;6.708;2024-01-16T08:32:30;12.60;;;4.70;;
11665;SDS011;5889;51.350;6.708;2024-01-16T08:34:57;13.63;;;3.87;;
11665;SDS011;5889;51.350;6.708;2024-01-16T08:37:24;10.70;;;4.40;;
11665;SDS011;5889;51.350;6.708;2024-01-16T08:39:51;15.67;;;5.37;;
11665;SDS011;5889;51.350;6.708;2024-01-16T08:42:19;12.97;;;4.90;;
11665;SDS011;5889;51.350;6.708;2024-01-16T08:44:47;9.70;;;4.63;;
11665;SDS011;5889;51.350;6.708;2024-01-16T08:47:16;10.47;;;4.20;;
11665;SDS011;5889;51.350;6.708;2024-01-16T08:49:44;16.57;;;4.87;;
11665;SDS011;5889;51.350;6.708;2024-01-16T08:52:11;17.23;;;4.73;;
11665;SDS011;5889;51.350;6.708;2024-01-16T08:54:38;13.77;;;4.70;;
11665;SDS011;5889;51.350;6.708;2024-01-16T08:57:05;15.03;;;4.83;;
11665;SDS011;5889;51.350;6.708;2024-01-16T08:59:33;7.73;;;4.13;;
11665;SDS011;5889;51.350;6.708;2024-01-16T09:02:00;10.43;;;4.43;;
11665;SDS011;5889;51.350;6.708;2024-01-16T09:04:27;11.97;;;4.67;;
11665;SDS011;5889;51.350;6.708;2024-01-16T09:06:54;14.50;;;4.60;;
11665;SDS011;5889;51.350;6.708;2024-01-16T09:09:20;11.97;;;4.87;;
11665;SDS011;5889;51.350;6.708;2024-01-16T09:11:47;11.27;;;4.67;;
11665;SDS011;5889;51.350;6.708;2024-01-16T09:14:14;8.07;;;3.87;;
11665;SDS011;5889;51.350;6.708;2024-01-16T09:16:43;12.37;;;4.80;;
11665;SDS011;5889;51.350;6.708;2024-01-16T09:19:10;10.23;;;5.03;;
11665;SDS011;5889;51.350;6.708;2024-01-16T09:21:37;7.67;;;3.83;;
11665;SDS011;5889;51.350;6.708;2024-01-16T09:24:04;9.37;;;4.37;;
11665;SDS011;5889;51.350;6.708;2024-01-16T09:26:31;11.30;;;4.73;;
11665;SDS011;5889;51.350;6.708;2024-01-16T09:28:58;10.07;;;3.90;;
11665;SDS011;5889;51.350;6.708;2024-01-16T09:31:25;14.03;;;5.17;;
11665;SDS011;5889;51.350;6.708;2024-01-16T09:33:53;12.43;;;4.50;;
11665;SDS011;5889;51.350;6.708;2024-01-16T09:36:20;13.57;;;4.77;;
11665;SDS011;5889;51.350;6.708;2024-01-16T09:38:47;10.30;;;4.60;;
11665;SDS011;5889;51.350;6.708;2024-01-16T09:41:14;12.73;;;4.87;;
11665;SDS011;5889;51.350;6.708;2024-01-16T09:43:41;11.27;;;4.90;;
11665;SDS011;5889;51.350;6.708;2024-01-16T09:46:10;9.43;;;4.77;;
11665;SDS011;5889;51.350;6.708;2024-01-16T09:48:38;11.70;;;5.13;;
11665;SDS011;5889;51.350;6.708;2024-01-16T09:51:08;15.57;;;4.80;;
11665;SDS011;5889;51.350;6.708;2024-01-16T09:53:34;11.80;;;5.40;;
11665;SDS011;5889;51.350;6.708;2024-01-16T09:56:02;9.30;;;4.57;;
11665;SDS011;5889;51.350;6.708;2024-01-16T09:58:30;13.97;;;4.80;;
11665;SDS011;5889;51.350;6.708;2024-01-16T10:01:01;8.47;;;4.23;;
11665;SDS011;5889;51.350;6.708;2024-01-16T10:03:27;13.87;;;4.57;;
11665;SDS011;5889;51.350;6.708;2024-01-16T10:05:57;11.93;;;4.90;;
11665;SDS011;5889;51.350;6.708;2024-01-16T10:08:27;9.33;;;4.50;;
11665;SDS011;5889;51.350;6.708;2024-01-16T10:10:56;13.90;;;4.73;;
11665;SDS011;5889;51.350;6.708;2024-01-16T10:13:23;10.33;;;5.00;;
11665;SDS011;5889;51.350;6.708;2024-01-16T10:15:52;13.60;;;4.80;;
11665;SDS011;5889;51.350;6.708;2024-01-16T10:18:23;12.97;;;5.83;;
11665;SDS011;5889;51.350;6.708;2024-01-16T10:20:52;8.63;;;4.60;;
11665;SDS011;5889;51.350;6.708;2024-01-16T10:23:22;11.67;;;4.80;;
11665;SDS011;5889;51.350;6.708;2024-01-16T10:28:34;17.67;;;4.77;;
11665;SDS011;5889;51.350;6.708;2024-01-16T10:31:01;12.43;;;5.40;;
11665;SDS011;5889;51.350;6.708;2024-01-16T10:33:29;12.37;;;4.70;;
11665;SDS011;5889;51.350;6.708;2024-01-16T10:36:07;11.87;;;4.73;;
11665;SDS011;5889;51.350;6.708;2024-01-16T10:38:35;14.07;;;4.80;;
11665;SDS011;5889;51.350;6.708;2024-01-16T10:41:10;15.30;;;4.13;;
11665;SDS011;5889;51.350;6.708;2024-01-16T10:43:43;11.67;;;4.80;;
11665;SDS011;5889;51.350;6.708;2024-01-16T10:46:11;7.90;;;4.40;;
11665;SDS011;5889;51.350;6.708;2024-01-16T10:48:39;9.57;;;4.60;;
11665;SDS011;5889;51.350;6.708;2024-01-16T10:51:08;15.23;;;5.43;;
11665;SDS011;5889;51.350;6.708;2024-01-16T10:53:37;9.07;;;4.50;;
11665;SDS011;5889;51.350;6.708;2024-01-16T10:56:11;18.73;;;5.10;;
11665;SDS011;5889;51.350;6.708;2024-01-16T10:58:38;10.53;;;4.90;;
11665;SDS011;5889;51.350;6.708;2024-01-16T11:01:10;10.87;;;5.43;;
11665;SDS011;5889;51.350;6.708;2024-01-16T11:03:40;10.03;;;4.77;;
11665;SDS011;5889;51.350;6.708;2024-01-16T11:06:11;11.37;;;4.60;;
11665;SDS011;5889;51.350;6.708;2024-01-16T11:08:40;12.17;;;4.93;;
11665;SDS011;5889;51.350;6.708;2024-01-16T11:11:08;17.17;;;5.17;;
11665;SDS011;5889;51.350;6.708;2024-01-16T11:13:37;10.57;;;4.87;;
11665;SDS011;5889;51.350;6.708;2024-01-16T11:16:05;11.67;;;5.90;;
11665;SDS011;5889;51.350;6.708;2024-01-16T11:18:33;13.10;;;5.00;;
11665;SDS011;5889;51.350;6.708;2024-01-16T11:21:01;13.53;;;5.27;;
11665;SDS011;5889;51.350;6.708;2024-01-16T11:23:31;11.73;;;5.70;;
11665;SDS011;5889;51.350;6.708;2024-01-16T11:25:59;12.20;;;5.30;;
11665;SDS011;5889;51.350;6.708;2024-01-16T11:28:48;12.37;;;5.57;;
11665;SDS011;5889;51.350;6.708;2024-01-16T11:31:27;14.40;;;5.27;;
11665;SDS011;5889;51.350;6.708;2024-01-16T11:33:54;10.50;;;6.00;;
11665;SDS011;5889;51.350;6.708;2024-01-16T11:36:47;13.80;;;5.73;;
11665;SDS011;5889;51.350;6.708;2024-01-16T11:39:19;15.20;;;4.80;;
11665;SDS011;5889;51.350;6.708;2024-01-16T11:41:47;13.87;;;6.37;;
11665;SDS011;5889;51.350;6.708;2024-01-16T11:47:09;10.63;;;5.53;;
11665;SDS011;5889;51.350;6.708;2024-01-16T11:49:41;10.20;;;5.83;;
11665;SDS011;5889;51.350;6.708;2024-01-16T11:52:08;12.83;;;5.40;;
11665;SDS011;5889;51.350;6.708;2024-01-16T11:54:36;14.13;;;5.83;;
11665;SDS011;5889;51.350;6.708;2024-01-16T12:00:18;17.43;;;6.67;;
11665;SDS011;5889;51.350;6.708;2024-01-16T12:02:50;11.27;;;5.73;;
11665;SDS011;5889;51.350;6.708;2024-01-16T12:05:20;18.07;;;6.30;;
11665;SDS011;5889;51.350;6.708;2024-01-16T12:07:47;12.53;;;4.87;;
11665;SDS011;5889;51.350;6.708;2024-01-16T12:10:15;16.00;;;5.00;;
11665;SDS011;5889;51.350;6.708;2024-01-16T12:12:43;11.23;;;4.50;;
11665;SDS011;5889;51.350;6.708;2024-01-16T12:15:14;10.33;;;4.37;;
11665;SDS011;5889;51.350;6.708;2024-01-16T12:17:56;9.30;;;4.43;;
11665;SDS011;5889;51.350;6.708;2024-01-16T12:20:25;14.80;;;4.90;;
11665;SDS011;5889;51.350;6.708;2024-01-16T12:23:02;14.70;;;4.40;;
11665;SDS011;5889;51.350;6.708;2024-01-16T12:25:30;15.40;;;4.93;;
11665;SDS011;5889;51.350;6.708;2024-01-16T12:27:59;11.27;;;4.60;;
11665;SDS011;5889;51.350;6.708;2024-01-16T12:30:27;12.60;;;5.07;;
11665;SDS011;5889;51.350;6.708;2024-01-16T12:33:06;20.00;;;5.97;;
11665;SDS011;5889;51.350;6.708;2024-01-16T12:35:34;13.47;;;5.43;;
11665;SDS011;5889;51.350;6.708;2024-01-16T12:38:02;18.70;;;6.63;;
11665;SDS011;5889;51.350;6.708;2024-01-16T12:40:31;12.43;;;4.97;;
11665;SDS011;5889;51.350;6.708;2024-01-16T12:42:59;10.23;;;5.50;;
11665;SDS011;5889;51.350;6.708;2024-01-16T12:45:26;13.30;;;5.20;;
11665;SDS011;5889;51.350;6.708;2024-01-16T12:47:54;11.50;;;5.17;;
11665;SDS011;5889;51.350;6.708;2024-01-16T12:50:26;9.63;;;5.00;;
11665;SDS011;5889;51.350;6.708;2024-01-16T12:53:04;10.97;;;4.90;;
11665;SDS011;5889;51.350;6.708;2024-01-16T12:55:32;11.80;;;5.47;;
11665;SDS011;5889;51.350;6.708;2024-01-16T12:58:13;13.80;;;5.30;;
11665;SDS011;5889;51.350;6.708;2024-01-16T13:00:41;17.23;;;5.27;;
11665;SDS011;5889;51.350;6.708;2024-01-16T13:03:14;14.30;;;5.80;;
11665;SDS011;5889;51.350;6.708;2024-01-16T13:05:44;12.23;;;5.63;;
11665;SDS011;5889;51.350;6.708;2024-01-16T13:08:17;11.40;;;5.17;;
11665;SDS011;5889;51.350;6.708;2024-01-16T13:10:44;14.33;;;5.73;;
11665;SDS011;5889;51.350;6.708;2024-01-16T13:13:12;11.03;;;6.03;;
11665;SDS011;5889;51.350;6.708;2024-01-16T13:15:40;12.60;;;6.60;;
11665;SDS011;5889;51.350;6.708;2024-01-16T13:18:16;9.27;;;4.53;;
11665;SDS011;5889;51.350;6.708;2024-01-16T13:20:47;12.90;;;5.87;;
11665;SDS011;5889;51.350;6.708;2024-01-16T13:23:14;12.53;;;6.03;;
11665;SDS011;5889;51.350;6.708;2024-01-16T13:25:42;13.63;;;6.07;;
11665;SDS011;5889;51.350;6.708;2024-01-16T13:28:10;11.37;;;5.40;;
11665;SDS011;5889;51.350;6.708;2024-01-16T13:30:39;10.07;;;4.90;;
11665;SDS011;5889;51.350;6.708;2024-01-16T13:33:05;14.17;;;4.83;;
11665;SDS011;5889;51.350;6.708;2024-01-16T13:35:34;16.37;;;6.30;;
11665;SDS011;5889;51.350;6.708;2024-01-16T13:38:03;9.93;;;5.10;;
11665;SDS011;5889;51.350;6.708;2024-01-16T13:40:30;15.73;;;5.23;;
11665;SDS011;5889;51.350;6.708;2024-01-16T13:42:58;13.23;;;5.33;;
11665;SDS011;5889;51.350;6.708;2024-01-16T13:45:25;10.53;;;4.80;;
11665;SDS011;5889;51.350;6.708;2024-01-16T13:47:53;14.57;;;5.60;;
11665;SDS011;5889;51.350;6.708;2024-01-16T13:50:20;16.00;;;6.17;;
11665;SDS011;5889;51.350;6.708;2024-01-16T13:52:47;12.80;;;5.33;;
11665;SDS011;5889;51.350;6.708;2024-01-16T13:55:16;9.07;;;5.23;;
11665;SDS011;5889;51.350;6.708;2024-01-16T13:57:44;9.87;;;5.20;;
11665;SDS011;5889;51.350;6.708;2024-01-16T14:00:11;10.13;;;5.00;;
11665;SDS011;5889;51.350;6.708;2024-01-16T14:02:40;12.40;;;5.83;;
11665;SDS011;5889;51.350;6.708;2024-01-16T14:05:08;11.77;;;4.87;;
11665;SDS011;5889;51.350;6.708;2024-01-16T14:07:36;13.90;;;5.87;;
11665;SDS011;5889;51.350;6.708;2024-01-16T14:10:04;14.67;;;6.53;;
11665;SDS011;5889;51.350;6.708;2024-01-16T14:12:34;11.70;;;5.47;;
11665;SDS011;5889;51.350;6.708;2024-01-16T14:15:02;9.97;;;5.23;;
11665;SDS011;5889;51.350;6.708;2024-01-16T14:17:34;11.20;;;5.17;;
11665;SDS011;5889;51.350;6.708;2024-01-16T14:20:01;15.03;;;5.40;;
11665;SDS011;5889;51.350;6.708;2024-01-16T14:22:30;11.60;;;5.73;;
11665;SDS011;5889;51.350;6.708;2024-01-16T14:24:57;11.00;;;5.37;;
11665;SDS011;5889;51.350;6.708;2024-01-16T14:27:24;10.50;;;5.30;;
11665;SDS011;5889;51.350;6.708;2024-01-16T14:29:52;9.53;;;4.63;;
11665;SDS011;5889;51.350;6.708;2024-01-16T14:32:19;12.57;;;5.23;;
11665;SDS011;5889;51.350;6.708;2024-01-16T14:34:46;15.43;;;5.57;;
11665;SDS011;5889;51.350;6.708;2024-01-16T14:37:13;9.40;;;5.17;;
11665;SDS011;5889;51.350;6.708;2024-01-16T14:39:42;13.10;;;5.30;;
11665;SDS011;5889;51.350;6.708;2024-01-16T14:42:09;13.77;;;5.07;;
11665;SDS011;5889;51.350;6.708;2024-01-16T14:44:36;13.63;;;5.53;;
11665;SDS011;5889;51.350;6.708;2024-01-16T14:47:04;11.00;;;5.87;;
11665;SDS011;5889;51.350;6.708;2024-01-16T14:49:32;9.67;;;5.50;;
11665;SDS011;5889;51.350;6.708;2024-01-16T14:51:59;12.13;;;5.23;;
11665;SDS011;5889;51.350;6.708;2024-01-16T14:54:26;7.20;;;4.53;;
11665;SDS011;5889;51.350;6.708;2024-01-16T14:56:53;8.83;;;4.03;;
11665;SDS011;5889;51.350;6.708;2024-01-16T14:59:20;9.57;;;4.57;;